Time;durP1;ratioP1;P1;durP2;ratioP2;P2;SDS_P1;SDS_P2;PMS_P1;PMS_P2;Temp;Humidity;BMP_temperature;BMP_pressure;BME280_temperature;BME280_humidity;BME280_pressure;Samples;Min_cycle;Max_cycle;Signal;HPM_P1;HPM_P2
2022/02/24 00:00:56;;;;;;;39.47;12.10;;;;;;;-0.08;77.90;99689.44;2286635;78;20883;-82
2022/02/24 00:03:57;;;;;;;43.23;13.63;;;;;;;-0.10;78.15;99685.48;2286275;78;20911;-82
2022/02/24 00:06:57;;;;;;;45.80;14.57;;;;;;;-0.15;77.93;99689.42;2286116;78;20966;-81
2022/02/24 00:09:58;;;;;;;40.77;13.47;;;;;;;-0.20;78.06;99692.07;2297105;77;20991;-81
2022/02/24 00:12:58;;;;;;;44.83;14.20;;;;;;;-0.25;77.96;99697.28;2317324;77;20923;-81
2022/02/24 00:15:59;;;;;;;39.17;12.37;;;;;;;-0.34;77.64;99693.70;2317299;77;20939;-81
2022/02/24 00:18:59;;;;;;;38.07;12.10;;;;;;;-0.41;77.70;99698.31;2317297;77;21326;-81
2022/02/24 00:22:00;;;;;;;39.07;12.37;;;;;;;-0.49;77.73;99688.81;2317340;77;21372;-81
2022/02/24 00:25:00;;;;;;;34.20;12.40;;;;;;;-0.55;77.89;99696.09;2316850;77;21350;-81
2022/02/24 00:28:01;;;;;;;39.77;12.03;;;;;;;-0.61;77.91;99683.23;2317361;77;20951;-81
2022/02/24 00:31:01;;;;;;;36.43;12.17;;;;;;;-0.66;78.03;99689.34;2317456;77;20954;-82
2022/02/24 00:34:02;;;;;;;37.67;13.37;;;;;;;-0.70;78.10;99688.23;2317580;77;20947;-81
2022/02/24 00:37:03;;;;;;;35.27;12.03;;;;;;;-0.72;78.23;99685.95;2317761;77;20951;-81
2022/02/24 00:40:05;;;;;;;41.30;13.67;;;;;;;-0.74;78.46;99695.61;2286536;77;21006;-82
2022/02/24 00:43:06;;;;;;;40.77;13.53;;;;;;;-0.74;78.57;99692.66;2317604;77;20922;-82
2022/02/24 00:46:06;;;;;;;37.87;14.03;;;;;;;-0.74;78.58;99687.92;2317691;77;21271;-82
2022/02/24 00:49:07;;;;;;;40.50;14.53;;;;;;;-0.76;78.67;99686.53;2317555;77;21291;-82
2022/02/24 00:52:08;;;;;;;38.30;13.90;;;;;;;-0.73;78.87;99683.29;2317706;77;20927;-82
2022/02/24 00:55:08;;;;;;;41.83;13.47;;;;;;;-0.72;79.03;99685.95;2317394;77;21291;-82
2022/02/24 00:58:09;;;;;;;29.90;13.10;;;;;;;-0.72;78.81;99678.27;2317010;77;20931;-81
2022/02/24 01:01:09;;;;;;;31.27;13.40;;;;;;;-0.72;79.10;99681.22;2317046;77;20915;-81
2022/02/24 01:04:10;;;;;;;34.00;13.53;;;;;;;-0.71;79.15;99681.33;2316956;77;21018;-81
2022/02/24 01:07:10;;;;;;;34.83;14.43;;;;;;;-0.72;79.27;99679.55;2316999;77;20943;-82
2022/02/24 01:10:11;;;;;;;44.23;14.33;;;;;;;-0.73;78.89;99675.20;2316964;77;21409;-81
2022/02/24 01:13:11;;;;;;;35.20;13.10;;;;;;;-0.74;79.35;99667.02;2317210;77;21338;-82
2022/02/24 01:16:11;;;;;;;36.83;14.60;;;;;;;-0.73;79.37;99671.36;2317110;77;21298;-82
2022/02/24 01:19:12;;;;;;;37.93;14.40;;;;;;;-0.73;79.30;99675.20;2317154;77;20947;-82
2022/02/24 01:22:13;;;;;;;39.20;12.90;;;;;;;-0.76;79.18;99674.99;2316913;77;20907;-82
2022/02/24 01:25:13;;;;;;;43.70;14.10;;;;;;;-0.80;78.98;99664.03;2316885;77;20919;-83
2022/02/24 01:28:14;;;;;;;33.87;12.97;;;;;;;-0.86;79.09;99670.02;2317066;77;20912;-82
2022/02/24 01:31:14;;;;;;;33.50;13.37;;;;;;;-0.93;79.04;99682.27;2316965;77;20947;-83
2022/02/24 01:34:18;;;;;;;35.37;12.63;;;;;;;-0.98;78.97;99673.86;2316880;77;20915;-83
2022/02/24 01:37:17;;;;;;;30.13;13.10;;;;;;;-1.02;79.14;99676.99;2316647;77;20915;-83
2022/02/24 01:40:18;;;;;;;30.50;13.03;;;;;;;-1.07;79.30;99669.77;2316823;77;21030;-82
2022/02/24 01:43:18;;;;;;;36.73;12.83;;;;;;;-1.11;79.33;99666.48;2317206;77;20891;-82
2022/02/24 01:46:19;;;;;;;38.80;15.00;;;;;;;-1.14;79.27;99671.39;2317183;77;20931;-81
2022/02/24 01:49:22;;;;;;;31.30;11.73;;;;;;;-1.16;79.48;99671.67;2317217;77;20931;-81
2022/02/24 01:52:22;;;;;;;37.13;12.77;;;;;;;-1.19;79.38;99665.06;2317261;77;20979;-81
2022/02/24 01:55:22;;;;;;;34.70;12.47;;;;;;;-1.25;79.36;99660.39;2317396;77;20916;-82
2022/02/24 01:58:23;;;;;;;34.17;12.00;;;;;;;-1.30;79.27;99658.78;2317371;77;20931;-82
2022/02/24 02:01:23;;;;;;;32.77;11.87;;;;;;;-1.35;79.32;99657.56;2317133;77;20974;-82
2022/02/24 02:04:23;;;;;;;29.37;12.10;;;;;;;-1.35;79.37;99660.52;2317315;77;20923;-82
2022/02/24 02:07:24;;;;;;;27.50;12.17;;;;;;;-1.37;79.38;99656.57;2317325;77;20951;-83
2022/02/24 02:10:24;;;;;;;40.77;11.83;;;;;;;-1.39;79.32;99652.13;2317408;77;21014;-82
2022/02/24 02:16:30;;;;;;;35.00;11.70;;;;;;;-1.39;79.94;99654.29;2283630;77;20978;-82
2022/02/24 02:19:31;;;;;;;30.07;11.40;;;;;;;-1.38;80.15;99655.18;2317300;77;20908;-83
2022/02/24 02:22:31;;;;;;;30.60;11.50;;;;;;;-1.39;79.89;99651.73;2316025;77;20943;-83
2022/02/24 02:25:32;;;;;;;37.23;11.30;;;;;;;-1.44;79.49;99660.75;2315974;77;21008;-83
2022/02/24 02:28:32;;;;;;;30.57;11.00;;;;;;;-1.47;79.57;99655.80;2315942;77;20928;-83
2022/02/24 02:31:33;;;;;;;26.33;10.23;;;;;;;-1.50;79.34;99648.80;2317497;77;20880;-82
2022/02/24 02:34:33;;;;;;;28.97;10.90;;;;;;;-1.52;79.22;99645.23;2317219;77;20915;-82
2022/02/24 02:37:34;;;;;;;27.90;10.53;;;;;;;-1.56;79.04;99644.52;2286284;77;20924;-83
2022/02/24 02:40:37;;;;;;;25.33;10.27;;;;;;;-1.61;79.23;99648.41;2317227;77;20959;-83
2022/02/24 02:43:37;;;;;;;31.27;11.87;;;;;;;-1.61;79.49;99640.34;2317083;77;21409;-83
2022/02/24 02:46:37;;;;;;;27.67;11.07;;;;;;;-1.60;79.53;99633.55;2316250;77;20986;-83
2022/02/24 02:49:38;;;;;;;25.13;11.13;;;;;;;-1.60;79.42;99642.52;2316494;77;20939;-82
2022/02/24 02:52:39;;;;;;;28.53;10.23;;;;;;;-1.60;79.46;99636.11;2317236;77;21339;-82
2022/02/24 02:55:39;;;;;;;27.30;10.23;;;;;;;-1.65;79.29;99629.77;2317276;77;20978;-82
2022/02/24 02:58:40;;;;;;;26.30;11.13;;;;;;;-1.67;79.37;99637.34;2317121;77;20939;-84
2022/02/24 03:01:40;;;;;;;31.47;10.07;;;;;;;-1.71;79.13;99634.06;2317351;77;21322;-83
2022/02/24 03:04:41;;;;;;;27.77;10.40;;;;;;;-1.71;79.61;99630.22;2317058;77;20927;-83
2022/02/24 03:07:41;;;;;;;22.87;9.30;;;;;;;-1.68;79.65;99633.39;2316056;77;21017;-83
2022/02/24 03:10:42;;;;;;;33.37;11.93;;;;;;;-1.68;79.46;99627.00;2316602;77;20986;-83
2022/02/24 03:13:43;;;;;;;23.00;9.77;;;;;;;-1.69;79.45;99631.62;2316913;77;20872;-83
2022/02/24 03:16:43;;;;;;;29.80;10.07;;;;;;;-1.70;79.52;99632.00;2316764;77;20935;-83
2022/02/24 03:19:44;;;;;;;29.67;10.67;;;;;;;-1.71;79.54;99635.73;2316820;77;20908;-83
2022/02/24 03:22:44;;;;;;;26.33;10.43;;;;;;;-1.76;79.16;99631.53;2316521;77;21319;-82
2022/02/24 03:25:45;;;;;;;30.03;10.47;;;;;;;-1.80;79.00;99632.09;2317267;77;21065;-83
2022/02/24 03:28:45;;;;;;;26.77;10.43;;;;;;;-1.85;78.79;99632.14;2316512;77;20962;-82
2022/02/24 03:31:46;;;;;;;24.47;10.97;;;;;;;-1.87;79.02;99627.69;2316392;77;20947;-82
2022/02/24 03:34:48;;;;;;;26.17;9.73;;;;;;;-1.91;78.84;99620.19;2316064;77;21459;-83
2022/02/24 03:37:48;;;;;;;24.53;10.20;;;;;;;-1.94;79.03;99619.96;2316814;77;20943;-83
2022/02/24 03:40:49;;;;;;;22.60;9.53;;;;;;;-1.97;78.81;99615.51;2316655;77;21001;-82
2022/02/24 03:43:50;;;;;;;33.53;11.00;;;;;;;-2.01;78.62;99616.06;2316470;77;21013;-83
2022/02/24 03:46:51;;;;;;;23.33;9.67;;;;;;;-2.02;78.69;99618.52;2317257;77;21477;-82
2022/02/24 03:49:51;;;;;;;26.50;10.50;;;;;;;-2.07;78.91;99618.56;2317299;77;20954;-82
2022/02/24 03:52:52;;;;;;;36.63;10.57;;;;;;;-2.06;79.15;99618.68;2317453;77;21370;-82
2022/02/24 03:55:52;;;;;;;30.60;10.50;;;;;;;-2.08;78.71;99621.52;2317307;77;21283;-82
2022/02/24 03:58:53;;;;;;;27.97;10.23;;;;;;;-2.17;78.28;99614.44;2317002;77;20938;-82
2022/02/24 04:01:54;;;;;;;30.57;11.20;;;;;;;-2.20;78.42;99612.05;2316078;77;20963;-81
2022/02/24 04:04:55;;;;;;;26.40;10.80;;;;;;;-2.22;78.58;99611.94;2317100;77;21030;-83
2022/02/24 04:07:56;;;;;;;28.60;10.37;;;;;;;-2.23;78.89;99611.83;2316277;77;21339;-83
2022/02/24 04:10:56;;;;;;;24.23;9.33;;;;;;;-2.21;78.97;99600.92;2311822;77;20985;-83
2022/02/24 04:13:57;;;;;;;25.97;10.27;;;;;;;-2.23;79.10;99605.43;2304103;77;20875;-82
2022/02/24 04:16:59;;;;;;;20.40;9.00;;;;;;;-2.22;79.30;99591.86;2304314;77;20929;-83
2022/02/24 04:20:02;;;;;;;29.90;9.87;;;;;;;-2.25;79.42;99609.16;2304015;77;20930;-81
2022/02/24 04:23:02;;;;;;;30.47;8.43;;;;;;;-2.23;79.03;99598.64;2304002;77;20967;-83
2022/02/24 04:26:03;;;;;;;23.87;9.77;;;;;;;-2.23;79.20;99601.20;2303666;77;21012;-83
2022/02/24 04:29:03;;;;;;;22.63;9.63;;;;;;;-2.25;78.92;99596.37;2303702;77;20940;-83
2022/02/24 04:32:04;;;;;;;23.30;8.57;;;;;;;-2.28;78.94;99602.53;2303700;77;20929;-83
2022/02/24 04:35:04;;;;;;;31.73;8.73;;;;;;;-2.32;78.63;99594.13;2303993;77;20917;-83
2022/02/24 04:38:05;;;;;;;22.73;9.00;;;;;;;-2.38;78.92;99598.80;2304174;77;20949;-81
2022/02/24 04:41:05;;;;;;;24.03;9.53;;;;;;;-2.41;78.62;99593.45;2303778;77;20992;-81
2022/02/24 04:44:06;;;;;;;27.50;9.30;;;;;;;-2.47;78.92;99596.45;2303227;77;21015;-80
2022/02/24 04:47:06;;;;;;;23.20;8.37;;;;;;;-2.48;78.92;99595.05;2303435;77;21443;-80
2022/02/24 04:50:08;;;;;;;21.83;9.10;;;;;;;-2.50;78.87;99597.88;2303405;77;21317;-81
2022/02/24 04:53:09;;;;;;;21.60;8.20;;;;;;;-2.53;78.82;99597.27;2302980;77;21001;-81
2022/02/24 04:56:09;;;;;;;21.57;8.33;;;;;;;-2.55;78.82;99601.77;2301794;77;20969;-82
2022/02/24 04:59:10;;;;;;;29.97;9.63;;;;;;;-2.55;78.55;99597.54;2302874;77;20969;-81
2022/02/24 05:02:10;;;;;;;20.17;8.17;;;;;;;-2.57;78.59;99594.88;2303461;77;20960;-81
2022/02/24 05:05:11;;;;;;;48.17;11.50;;;;;;;-2.57;78.65;99599.09;2303113;77;21349;-81
2022/02/24 05:08:12;;;;;;;25.80;9.23;;;;;;;-2.55;78.79;99595.38;2302807;77;20945;-81
2022/02/24 05:11:12;;;;;;;25.20;9.13;;;;;;;-2.55;78.65;99592.43;2307047;75;21018;-81
2022/02/24 05:14:13;;;;;;;24.07;9.53;;;;;;;-2.57;78.57;99601.27;2314219;77;20951;-81
2022/02/24 05:17:13;;;;;;;20.90;8.57;;;;;;;-2.60;78.24;99598.48;2314680;77;20923;-81
2022/02/24 05:20:14;;;;;;;31.37;9.77;;;;;;;-2.64;78.19;99595.16;2314431;77;20994;-81
2022/02/24 05:23:14;;;;;;;28.30;10.03;;;;;;;-2.67;78.23;99593.64;2313401;77;21382;-81
2022/02/24 05:26:15;;;;;;;20.83;9.23;;;;;;;-2.68;78.33;99589.31;2314148;77;20939;-81
2022/02/24 05:29:15;;;;;;;21.50;8.17;;;;;;;-2.67;78.54;99591.48;2314797;77;20939;-82
2022/02/24 05:32:16;;;;;;;29.10;9.67;;;;;;;-2.63;78.45;99588.38;2315342;77;20935;-81
2022/02/24 05:35:16;;;;;;;23.83;9.90;;;;;;;-2.62;78.54;99597.44;2314700;77;20946;-81
2022/02/24 05:38:17;;;;;;;25.43;10.53;;;;;;;-2.58;78.65;99599.48;2313632;77;20994;-81
2022/02/24 05:41:18;;;;;;;26.43;8.77;;;;;;;-2.52;78.42;99598.16;2314871;77;20975;-81
2022/02/24 05:44:18;;;;;;;168.80;16.10;;;;;;;-2.51;77.92;99598.66;2314144;77;21650;-81
2022/02/24 05:47:19;;;;;;;39.30;9.13;;;;;;;-2.58;77.71;99598.20;2314689;77;20951;-81
2022/02/24 05:50:20;;;;;;;28.57;10.10;;;;;;;-2.63;77.76;99602.44;2313582;77;21002;-81
2022/02/24 05:53:20;;;;;;;22.67;9.40;;;;;;;-2.61;77.96;99604.33;2313771;77;20954;-81
2022/02/24 05:56:21;;;;;;;40.93;8.73;;;;;;;-2.55;78.02;99606.88;2313312;77;21560;-81
2022/02/24 05:59:21;;;;;;;22.37;9.50;;;;;;;-2.54;77.56;99602.27;2313033;77;21647;-81
2022/02/24 06:02:22;;;;;;;21.07;9.60;;;;;;;-2.53;77.59;99606.61;2313221;77;21322;-82
2022/02/24 06:05:23;;;;;;;28.17;9.67;;;;;;;-2.49;77.82;99600.94;2314124;77;21024;-82
2022/02/24 06:08:23;;;;;;;43.77;9.83;;;;;;;-2.45;77.67;99594.00;2313829;77;21017;-80
2022/02/24 06:11:24;;;;;;;38.53;10.33;;;;;;;-2.44;77.93;99591.56;2313235;77;21054;-80
2022/02/24 06:14:24;;;;;;;26.30;9.27;;;;;;;-2.37;77.66;99597.63;2313447;77;20978;-80
2022/02/24 06:17:25;;;;;;;86.63;13.13;;;;;;;-2.30;77.76;99597.70;2314752;77;20974;-82
2022/02/24 06:20:25;;;;;;;41.20;11.00;;;;;;;-2.21;77.54;99593.25;2314564;77;20934;-81
2022/02/24 06:23:26;;;;;;;30.43;10.17;;;;;;;-2.09;77.86;99585.59;2314003;77;20951;-81
2022/02/24 06:26:26;;;;;;;39.37;10.37;;;;;;;-1.98;77.42;99580.86;2313624;77;20994;-82
2022/02/24 06:29:27;;;;;;;25.27;10.47;;;;;;;-1.87;77.38;99579.07;2313803;77;20951;-81
2022/02/24 06:32:27;;;;;;;24.13;9.73;;;;;;;-1.78;77.18;99577.17;2313427;77;20962;-81
2022/02/24 06:35:29;;;;;;;29.50;11.20;;;;;;;-1.60;77.35;99582.36;2313419;77;20955;-82
2022/02/24 06:38:29;;;;;;;37.87;13.30;;;;;;;-1.46;77.69;99579.09;2315351;77;20964;-78
2022/02/24 06:41:30;;;;;;;39.73;13.80;;;;;;;-1.30;78.37;99582.33;2313942;77;21005;-81
2022/02/24 06:44:31;;;;;;;39.07;13.37;;;;;;;-1.08;78.18;99577.02;2314054;77;21357;-81
2022/02/24 06:47:31;;;;;;;35.23;16.20;;;;;;;-0.93;78.25;99569.10;2313383;77;21469;-80
2022/02/24 06:50:32;;;;;;;38.83;16.43;;;;;;;-0.73;78.84;99573.94;2313889;77;20962;-81
2022/02/24 06:53:32;;;;;;;38.07;16.30;;;;;;;-0.55;78.68;99570.83;2314425;77;20958;-81
2022/02/24 06:56:33;;;;;;;54.13;19.70;;;;;;;-0.36;78.83;99572.14;2314098;77;20932;-82
2022/02/24 06:59:34;;;;;;;45.27;19.40;;;;;;;-0.12;79.16;99561.31;2312482;77;21002;-80
2022/02/24 07:02:34;;;;;;;71.60;21.83;;;;;;;0.14;79.26;99558.28;2313781;77;21005;-80
2022/02/24 07:05:37;;;;;;;113.37;26.50;;;;;;;0.37;79.20;99555.48;2283023;77;21165;-82
2022/02/24 07:08:39;;;;;;;71.67;23.73;;;;;;;0.54;78.99;99558.72;2308825;77;21930;-79
2022/02/24 07:11:40;;;;;;;66.10;24.53;;;;;;;0.85;79.20;99561.89;2313256;77;21092;-78
2022/02/24 07:14:41;;;;;;;49.47;23.33;;;;;;;1.08;78.77;99553.92;2312734;77;21453;-80
2022/02/24 07:17:41;;;;;;;51.17;23.73;;;;;;;1.31;78.44;99551.83;2313457;77;20982;-81
2022/02/24 07:20:42;;;;;;;51.97;24.23;;;;;;;1.59;80.12;99556.11;2313317;77;20954;-80
2022/02/24 07:23:43;;;;;;;56.03;24.40;;;;;;;1.81;78.14;99544.11;2313825;77;20919;-81
2022/02/24 07:26:43;;;;;;;62.97;27.73;;;;;;;2.22;78.38;99540.00;2314448;77;21957;-81
2022/02/24 07:29:44;;;;;;;54.73;25.10;;;;;;;2.32;77.24;99543.97;2314437;77;21369;-81
2022/02/24 07:32:44;;;;;;;62.17;26.27;;;;;;;2.41;76.69;99540.61;2315695;77;20895;-80
2022/02/24 07:35:45;;;;;;;58.87;26.07;;;;;;;2.58;76.65;99541.94;2315736;77;20973;-81
2022/02/24 07:38:46;;;;;;;58.73;25.47;;;;;;;2.75;76.18;99531.76;2314805;77;20950;-81
2022/02/24 07:41:46;;;;;;;69.63;26.73;;;;;;;2.90;75.77;99528.22;2314658;77;21003;-81
2022/02/24 07:44:47;;;;;;;61.07;25.70;;;;;;;3.05;75.38;99525.15;2315390;77;20916;-81
2022/02/24 07:47:47;;;;;;;59.03;24.53;;;;;;;3.21;74.85;99523.84;2314378;77;21056;-81
2022/02/24 07:50:48;;;;;;;54.47;24.17;;;;;;;3.36;74.32;99521.16;2314489;77;21001;-80
2022/02/24 07:53:49;;;;;;;61.60;26.73;;;;;;;3.47;73.79;99518.34;2312575;77;21010;-82
2022/02/24 07:56:52;;;;;;;55.27;25.67;;;;;;;3.58;73.71;99509.84;2313420;77;21284;-80
2022/02/24 07:59:52;;;;;;;61.57;27.53;;;;;;;3.71;73.37;99511.34;2313785;77;21394;-80
2022/02/24 08:02:55;;;;;;;67.20;27.47;;;;;;;3.89;73.52;99506.19;2313790;77;20963;-81
2022/02/24 08:05:55;;;;;;;50.80;22.30;;;;;;;4.08;73.40;99503.67;2313088;77;21020;-79
2022/02/24 08:08:55;;;;;;;54.33;21.27;;;;;;;4.92;81.79;99487.78;2314404;77;20983;-80
2022/02/24 08:15:15;;;;;;;48.30;22.70;;;;;;;10.09;73.03;99467.55;2300594;77;21033;-80
2022/02/24 08:18:16;;;;;;;50.23;22.47;;;;;;;11.67;70.18;99459.98;2300487;77;20969;-80
2022/02/24 08:21:16;;;;;;;43.13;20.30;;;;;;;12.66;66.49;99453.70;2300369;77;20969;-80
2022/02/24 08:24:18;;;;;;;46.17;21.93;;;;;;;11.89;57.75;99455.59;2300328;77;21369;-80
2022/02/24 08:27:18;;;;;;;45.60;20.83;;;;;;;10.11;56.45;99460.64;2300414;77;20984;-81
2022/02/24 08:30:21;;;;;;;37.60;20.03;;;;;;;8.87;57.79;99459.56;2300500;77;20947;-80
2022/02/24 08:33:21;;;;;;;40.57;19.57;;;;;;;8.07;59.46;99456.23;2300347;77;21040;-81
2022/02/24 08:36:25;;;;;;;41.33;20.27;;;;;;;7.49;59.99;99450.42;2299965;77;20965;-80
2022/02/24 08:39:26;;;;;;;44.73;20.07;;;;;;;7.14;61.10;99446.63;2300301;77;21016;-80
2022/02/24 08:42:26;;;;;;;42.13;18.50;;;;;;;6.95;62.26;99438.61;2299527;77;21357;-80
2022/02/24 08:45:27;;;;;;;36.97;17.80;;;;;;;6.71;61.87;99429.91;2300240;77;20941;-79
2022/02/24 08:48:27;;;;;;;40.97;17.77;;;;;;;6.62;62.16;99429.58;2298540;77;21265;-80
2022/02/24 08:51:28;;;;;;;40.67;16.10;;;;;;;6.53;62.16;99421.45;2300437;77;20972;-81
2022/02/24 08:54:29;;;;;;;35.10;14.50;;;;;;;6.47;62.82;99416.04;2299758;77;21012;-80
2022/02/24 08:57:30;;;;;;;26.27;12.80;;;;;;;6.53;62.55;99404.19;2299756;77;21367;-80
2022/02/24 09:00:30;;;;;;;29.53;12.63;;;;;;;6.80;62.47;99407.30;2299303;77;21935;-80
2022/02/24 09:03:31;;;;;;;32.07;12.53;;;;;;;6.87;62.21;99401.08;2299514;77;20985;-81
2022/02/24 09:06:32;;;;;;;28.47;11.47;;;;;;;6.93;61.76;99392.21;2299276;77;21431;-79
2022/02/24 09:09:33;;;;;;;31.27;10.93;;;;;;;7.03;61.47;99380.47;2300637;77;21381;-80
2022/02/24 09:12:34;;;;;;;27.47;11.10;;;;;;;7.08;61.41;99372.84;2307340;77;20998;-81
2022/02/24 09:15:37;;;;;;;21.83;9.47;;;;;;;7.12;60.91;99371.70;2314267;77;21669;-80
2022/02/24 09:18:38;;;;;;;21.70;8.40;;;;;;;7.15;60.18;99373.09;2314299;77;20975;-78
2022/02/24 09:21:38;;;;;;;20.37;8.23;;;;;;;7.13;59.71;99367.39;2314228;77;20911;-81
2022/02/24 09:24:39;;;;;;;20.07;8.17;;;;;;;7.13;59.42;99357.88;2314272;77;20894;-79
2022/02/24 09:27:40;;;;;;;22.77;8.50;;;;;;;7.19;59.57;99363.70;2314894;77;20928;-79
2022/02/24 09:30:40;;;;;;;21.10;8.13;;;;;;;7.28;60.21;99367.48;2313036;77;20990;-79
2022/02/24 09:33:41;;;;;;;23.17;8.47;;;;;;;7.39;58.87;99370.43;2312560;77;20923;-80
2022/02/24 09:36:41;;;;;;;24.47;8.97;;;;;;;7.47;58.49;99356.39;2311619;77;21886;-80
2022/02/24 09:39:42;;;;;;;23.47;8.30;;;;;;;7.52;57.69;99355.70;2313327;77;21710;-78
2022/02/24 09:42:42;;;;;;;21.63;8.90;;;;;;;7.57;57.84;99347.64;2309915;77;21508;-78
2022/02/24 09:45:43;;;;;;;45.10;8.60;;;;;;;7.61;57.46;99349.50;2310329;77;21271;-78
2022/02/24 09:48:45;;;;;;;28.53;9.33;;;;;;;7.59;55.67;99344.67;2311319;77;21401;-78
2022/02/24 09:51:46;;;;;;;32.67;9.67;;;;;;;7.60;57.38;99335.16;2311781;77;21296;-78
2022/02/24 09:54:46;;;;;;;20.80;7.37;;;;;;;7.73;58.11;99335.12;2312145;77;21260;-79
2022/02/24 09:57:47;;;;;;;23.93;7.90;;;;;;;7.88;57.42;99327.83;2311895;77;21957;-78
2022/02/24 10:00:47;;;;;;;22.13;8.90;;;;;;;8.01;57.09;99316.08;2313524;77;21361;-80
2022/02/24 10:03:49;;;;;;;29.83;7.17;;;;;;;8.11;57.73;99312.48;2315351;77;20963;-80
2022/02/24 10:06:50;;;;;;;16.77;5.70;;;;;;;8.20;56.77;99303.66;2314102;77;20999;-81
2022/02/24 10:09:51;;;;;;;28.87;6.50;;;;;;;8.19;55.33;99294.09;2315030;77;20962;-79
2022/02/24 10:12:51;;;;;;;17.43;6.27;;;;;;;8.22;55.77;99286.38;2307484;77;21056;-78
2022/02/24 10:15:52;;;;;;;16.73;6.40;;;;;;;8.21;54.34;99279.41;2300620;77;20949;-79
2022/02/24 10:18:52;;;;;;;20.73;6.83;;;;;;;8.25;54.59;99285.16;2299664;77;20996;-80
2022/02/24 10:21:53;;;;;;;18.37;6.27;;;;;;;8.25;53.36;99273.45;2299556;77;21088;-80
2022/02/24 10:24:53;;;;;;;23.37;6.67;;;;;;;8.28;52.52;99260.53;2299282;77;20973;-81
2022/02/24 10:27:54;;;;;;;19.33;7.10;;;;;;;8.34;53.51;99246.84;2301169;77;21392;-78
2022/02/24 10:30:54;;;;;;;19.93;8.07;;;;;;;8.38;53.78;99253.02;2301991;77;20984;-78
2022/02/24 10:33:55;;;;;;;22.37;7.80;;;;;;;8.40;53.43;99237.03;2300641;77;21051;-79
2022/02/24 10:36:56;;;;;;;28.50;7.23;;;;;;;8.45;54.23;99236.73;2300769;77;20906;-77
2022/02/24 10:39:56;;;;;;;19.67;6.40;;;;;;;8.49;53.45;99226.86;2298436;77;21000;-79
2022/02/24 10:42:57;;;;;;;21.60;7.17;;;;;;;8.42;53.45;99223.64;2298388;77;21168;-79
2022/02/24 10:45:58;;;;;;;16.37;5.87;;;;;;;8.43;53.73;99213.27;2299810;77;21055;-78
2022/02/24 10:48:59;;;;;;;39.07;6.93;;;;;;;8.52;53.68;99212.62;2299804;77;20956;-77
2022/02/24 10:52:00;;;;;;;27.07;7.20;;;;;;;8.56;52.32;99207.97;2301008;77;21639;-80
2022/02/24 10:55:01;;;;;;;19.47;7.13;;;;;;;8.57;53.22;99210.61;2301263;77;20929;-78
2022/02/24 10:58:01;;;;;;;38.50;8.60;;;;;;;8.62;53.19;99200.31;2300378;77;21266;-78
2022/02/24 11:01:02;;;;;;;26.43;7.13;;;;;;;8.72;54.24;99205.36;2299466;77;20921;-78
2022/02/24 11:04:03;;;;;;;34.40;8.43;;;;;;;8.82;53.06;99196.94;2299507;77;20992;-78
2022/02/24 11:07:04;;;;;;;22.67;7.00;;;;;;;8.82;53.54;99190.42;2298448;77;20984;-78
2022/02/24 11:10:05;;;;;;;17.23;6.60;;;;;;;8.88;52.69;99183.64;2298746;77;21639;-78
2022/02/24 11:13:06;;;;;;;20.13;6.57;;;;;;;8.88;51.62;99184.06;2298513;77;21507;-78
2022/02/24 11:16:06;;;;;;;22.77;6.30;;;;;;;8.87;51.13;99180.58;2298797;77;20925;-79
2022/02/24 11:19:08;;;;;;;25.90;6.37;;;;;;;8.89;50.73;99173.69;2299137;77;21015;-79
2022/02/24 11:22:09;;;;;;;51.33;6.97;;;;;;;8.92;50.64;99172.46;2300591;77;20996;-81
2022/02/24 11:25:09;;;;;;;17.30;6.60;;;;;;;8.99;50.51;99162.19;2300725;77;21000;-81
2022/02/24 11:28:11;;;;;;;21.03;6.50;;;;;;;9.02;49.99;99150.12;2299468;77;21007;-81
2022/02/24 11:31:12;;;;;;;16.93;5.60;;;;;;;9.03;50.46;99149.70;2299684;77;21726;-80
2022/02/24 11:34:13;;;;;;;15.20;6.80;;;;;;;9.08;49.29;99138.96;2299224;77;20933;-80
2022/02/24 11:37:13;;;;;;;19.50;5.93;;;;;;;9.08;49.44;99129.84;2298692;77;20976;-81
2022/02/24 11:40:14;;;;;;;19.73;6.17;;;;;;;9.12;50.06;99127.77;2299111;77;21007;-81
2022/02/24 11:43:20;;;;;;;20.27;6.23;;;;;;;9.19;50.96;99114.91;2300391;77;21001;-84
2022/02/24 11:46:17;;;;;;;16.73;6.33;;;;;;;9.32;50.35;99107.36;2301288;77;21060;-83
2022/02/24 11:49:17;;;;;;;16.80;5.77;;;;;;;9.42;50.23;99101.06;2302068;77;20941;-82
2022/02/24 11:52:18;;;;;;;13.20;5.73;;;;;;;9.49;50.05;99092.95;2300753;77;20992;-81
2022/02/24 11:55:19;;;;;;;21.17;6.10;;;;;;;9.51;49.96;99086.91;2301203;77;20933;-81
2022/02/24 11:58:19;;;;;;;106.40;9.73;;;;;;;9.58;49.88;99086.22;2300517;77;21367;-81
2022/02/24 12:01:20;;;;;;;35.33;6.47;;;;;;;9.92;49.11;99080.34;2299122;77;21015;-78
2022/02/24 12:04:20;;;;;;;15.73;5.70;;;;;;;9.92;48.57;99076.42;2300118;77;20945;-80
2022/02/24 12:07:22;;;;;;;14.70;6.57;;;;;;;9.84;49.30;99080.63;2300216;77;20980;-83
2022/02/24 12:10:23;;;;;;;15.77;7.00;;;;;;;9.88;48.47;99074.61;2300321;77;21734;-80
2022/02/24 12:13:25;;;;;;;12.53;5.83;;;;;;;9.87;47.67;99076.34;2300153;77;21016;-79
2022/02/24 12:16:25;;;;;;;21.50;7.47;;;;;;;9.89;46.93;99064.64;2300615;77;21090;-81
2022/02/24 12:19:26;;;;;;;12.67;5.70;;;;;;;9.94;47.22;99056.47;2301664;77;21043;-82
2022/02/24 12:22:27;;;;;;;14.33;5.67;;;;;;;10.05;47.61;99046.22;2301584;77;20995;-82
2022/02/24 12:25:28;;;;;;;38.00;6.80;;;;;;;10.12;47.02;99046.35;2300557;77;21207;-82
2022/02/24 12:28:29;;;;;;;112.60;11.90;;;;;;;10.18;46.02;99039.05;2300456;77;20984;-79
2022/02/24 12:31:29;;;;;;;18.37;5.77;;;;;;;10.16;46.86;99033.81;2297959;77;21915;-80
2022/02/24 12:34:30;;;;;;;10.67;5.10;;;;;;;10.19;47.84;99024.73;2300267;77;20885;-81
2022/02/24 12:37:33;;;;;;;19.90;5.63;;;;;;;10.32;46.91;99024.96;2301374;77;21436;-81
2022/02/24 12:40:33;;;;;;;24.37;5.50;;;;;;;10.37;46.34;99014.16;2301696;77;21036;-82
2022/02/24 12:43:33;;;;;;;10.17;4.60;;;;;;;10.39;45.50;99015.94;2301058;77;21032;-81
2022/02/24 12:46:34;;;;;;;13.13;4.60;;;;;;;10.39;46.18;99008.55;2301261;77;20964;-80
2022/02/24 12:49:34;;;;;;;12.00;4.87;;;;;;;10.40;46.26;99005.98;2302123;77;20925;-81
2022/02/24 12:52:35;;;;;;;8.40;4.57;;;;;;;10.44;45.79;99003.00;2300833;77;21027;-80
2022/02/24 12:55:36;;;;;;;25.70;5.23;;;;;;;10.48;44.52;98991.75;2300171;77;20997;-80
2022/02/24 12:58:36;;;;;;;15.53;5.00;;;;;;;10.49;43.51;98989.59;2301174;77;20961;-80
2022/02/24 13:01:37;;;;;;;11.67;4.40;;;;;;;10.49;43.74;98981.33;2301275;77;20956;-80
2022/02/24 13:04:38;;;;;;;12.00;4.10;;;;;;;10.49;45.04;98981.33;2300256;77;20960;-82
2022/02/24 13:10:58;;;;;;;11.03;4.10;;;;;;;10.55;43.77;98959.66;2300486;77;20968;-78
2022/02/24 13:13:59;;;;;;;15.23;4.97;;;;;;;10.58;42.76;98953.17;2288384;76;21073;-79
2022/02/24 13:16:59;;;;;;;16.83;5.17;;;;;;;10.52;43.18;98944.84;2281755;78;21010;-80
2022/02/24 13:20:00;;;;;;;30.48;6.67;;;;;;;10.45;42.11;98937.78;2282872;78;20888;-82
2022/02/24 13:23:00;;;;;;;19.70;6.10;;;;;;;10.42;44.02;98931.64;2282605;78;20963;-80
2022/02/24 13:26:02;;;;;;;13.33;4.70;;;;;;;10.43;44.39;98926.44;2282726;78;20955;-79
2022/02/24 13:29:02;;;;;;;12.93;4.77;;;;;;;10.38;44.36;98925.89;2283489;78;21018;-82
2022/02/24 13:32:03;;;;;;;21.23;5.07;;;;;;;10.18;44.11;98907.33;2282502;78;20955;-81
2022/02/24 13:35:03;;;;;;;13.17;4.93;;;;;;;9.93;44.32;98908.69;2282145;78;20926;-79
2022/02/24 13:38:04;;;;;;;13.47;4.40;;;;;;;9.71;44.71;98892.27;2282596;78;20978;-80
2022/02/24 13:41:05;;;;;;;11.47;5.00;;;;;;;9.57;45.44;98895.53;2282392;78;20966;-81
2022/02/24 13:44:05;;;;;;;11.30;4.70;;;;;;;9.50;45.92;98888.42;2282224;78;20999;-82
2022/02/24 13:47:06;;;;;;;37.00;6.03;;;;;;;9.43;45.96;98876.14;2282465;78;21018;-82
2022/02/24 13:50:07;;;;;;;10.00;4.73;;;;;;;9.34;45.88;98869.48;2282627;78;20973;-81
2022/02/24 13:53:07;;;;;;;16.23;4.87;;;;;;;9.33;46.63;98861.21;2282149;78;20935;-81
2022/02/24 13:56:08;;;;;;;10.33;4.47;;;;;;;9.32;46.32;98855.98;2282377;78;20993;-80
2022/02/24 13:59:08;;;;;;;12.73;4.57;;;;;;;9.29;46.85;98849.41;2281800;78;20954;-80
2022/02/24 14:02:09;;;;;;;14.67;5.03;;;;;;;9.33;47.62;98848.19;2282202;78;21338;-81
2022/02/24 14:05:09;;;;;;;24.40;5.03;;;;;;;9.37;46.70;98840.88;2281877;78;21001;-81
2022/02/24 14:08:10;;;;;;;22.80;5.90;;;;;;;9.43;47.15;98833.58;2281832;78;20974;-81